sensor_id;sensor_type;location;lat;lon;timestamp;pressure;altitude;pressure_sealevel;temperature;humidity
47712;BME280;57457;51.634;5.886;2023-05-02T00:03:26;101600;;;10.9;84.4
47712;BME280;57457;51.634;5.886;2023-05-02T00:37:07;101700;;;12.1;83.9
47712;BME280;57457;51.634;5.886;2023-05-02T00:54:40;101700;;;12.1;83.9
47712;BME280;57457;51.634;5.886;2023-05-02T01:13:39;101700;;;12.1;83.3
47712;BME280;57457;51.634;5.886;2023-05-02T01:35:37;101700;;;12.1;83.3
47712;BME280;57457;51.634;5.886;2023-05-02T02:09:00;101700;;;12.1;83.4
47712;BME280;57457;51.634;5.886;2023-05-02T02:37:25;101700;;;12.1;83.4
47712;BME280;57457;51.634;5.886;2023-05-02T02:55:15;101700;;;12.0;83.7
47712;BME280;57457;51.634;5.886;2023-05-02T03:18:26;101800;;;12.0;84.2
47712;BME280;57457;51.634;5.886;2023-05-02T03:39:53;101800;;;12.0;85.0
47712;BME280;57457;51.634;5.886;2023-05-02T03:56:37;101800;;;11.8;85.6
47712;BME280;57457;51.634;5.886;2023-05-02T04:17:01;101800;;;11.6;85.0
47712;BME280;57457;51.634;5.886;2023-05-02T04:46:06;101900;;;11.4;83.3
47712;BME280;57457;51.634;5.886;2023-05-02T05:16:23;101900;;;11.2;83.2
47712;BME280;57457;51.634;5.886;2023-05-02T05:40:16;101900;;;11.0;82.3
47712;BME280;57457;51.634;5.886;2023-05-02T05:59:40;102000;;;11.1;82.6
47712;BME280;57457;51.634;5.886;2023-05-02T06:25:16;102000;;;11.2;81.2
47712;BME280;57457;51.634;5.886;2023-05-02T07:08:23;102000;;;11.3;77.5
47712;BME280;57457;51.634;5.886;2023-05-02T07:43:23;102200;;;11.9;74.0
47712;BME280;57457;51.634;5.886;2023-05-02T08:05:48;102200;;;11.8;71.2
47712;BME280;57457;51.634;5.886;2023-05-02T08:34:13;102200;;;12.0;69.6
47712;BME280;57457;51.634;5.886;2023-05-02T08:59:46;102200;;;12.2;64.4
47712;BME280;57457;51.634;5.886;2023-05-02T09:21:14;102200;;;12.3;65.3
47712;BME280;57457;51.634;5.886;2023-05-02T09:40:49;102300;;;12.4;68.0
47712;BME280;57457;51.634;5.886;2023-05-02T09:57:01;102300;;;12.2;69.0
47712;BME280;57457;51.634;5.886;2023-05-02T10:32:26;102300;;;12.2;59.0
47712;BME280;57457;51.634;5.886;2023-05-02T11:10:47;102300;;;14.7;57.7
47712;BME280;57457;51.634;5.886;2023-05-02T11:29:06;102300;;;14.7;55.9
47712;BME280;57457;51.634;5.886;2023-05-02T11:46:09;102300;;;15.1;57.0
47712;BME280;57457;51.634;5.886;2023-05-02T12:05:11;102300;;;15.4;52.2
47712;BME280;57457;51.634;5.886;2023-05-02T12:30:48;102400;;;16.0;51.2
47712;BME280;57457;51.634;5.886;2023-05-02T12:54:47;102400;;;16.4;49.7
47712;BME280;57457;51.634;5.886;2023-05-02T13:11:10;102400;;;16.8;51.0
47712;BME280;57457;51.634;5.886;2023-05-02T13:27:28;102400;;;17.3;52.2
47712;BME280;57457;51.634;5.886;2023-05-02T13:57:29;102400;;;16.9;47.8
47712;BME280;57457;51.634;5.886;2023-05-02T14:15:42;102400;;;16.8;46.0
47712;BME280;57457;51.634;5.886;2023-05-02T14:30:23;102400;;;16.6;45.7
47712;BME280;57457;51.634;5.886;2023-05-02T14:47:42;102400;;;17.0;46.2
47712;BME280;57457;51.634;5.886;2023-05-02T15:07:17;102400;;;17.5;45.2
47712;BME280;57457;51.634;5.886;2023-05-02T15:23:00;102400;;;17.9;43.7
47712;BME280;57457;51.634;5.886;2023-05-02T15:43:40;102400;;;18.5;45.8
47712;BME280;57457;51.634;5.886;2023-05-02T16:07:27;102400;;;18.7;45.5
47712;BME280;57457;51.634;5.886;2023-05-02T16:29:13;102400;;;18.6;47.9
47712;BME280;57457;51.634;5.886;2023-05-02T17:15:00;102400;;;17.0;54.5
47712;BME280;57457;51.634;5.886;2023-05-02T17:33:44;102400;;;15.5;56.6
47712;BME280;57457;51.634;5.886;2023-05-02T17:51:13;102400;;;14.4;57.1
47712;BME280;57457;51.634;5.886;2023-05-02T18:12:47;102400;;;13.7;57.8
47712;BME280;57457;51.634;5.886;2023-05-02T18:34:37;102500;;;13.0;60.5
47712;BME280;57457;51.634;5.886;2023-05-02T18:55:22;102500;;;12.2;64.4
47712;BME280;57457;51.634;5.886;2023-05-02T19:28:52;102500;;;11.4;67.6
47712;BME280;57457;51.634;5.886;2023-05-02T20:01:41;102500;;;10.6;73.7
47712;BME280;57457;51.634;5.886;2023-05-02T20:41:31;102500;;;9.6;76.2
47712;BME280;57457;51.634;5.886;2023-05-02T21:29:58;102600;;;6.5;79.8
47712;BME280;57457;51.634;5.886;2023-05-02T22:10:53;102600;;;6.4;82.5
47712;BME280;57457;51.634;5.886;2023-05-02T22:38:38;102600;;;5.9;83.6
47712;BME280;57457;51.634;5.886;2023-05-02T23:05:41;102600;;;5.4;84.0
47712;BME280;57457;51.634;5.886;2023-05-02T23:41:07;102600;;;5.1;84.3
